createdAt,value
2022-10-06T00:01:04.785Z,25.85
2022-10-06T00:03:55.602Z,22.33
2022-10-06T00:06:44.593Z,31.05
2022-10-06T00:09:33.927Z,29.40
2022-10-06T00:12:23.007Z,25.73
2022-10-06T00:15:13.979Z,24.52
2022-10-06T00:18:03.700Z,27.38
2022-10-06T00:20:58.455Z,26.27
2022-10-06T00:23:47.627Z,23.55
2022-10-06T00:26:36.453Z,23.60
2022-10-06T00:29:26.113Z,24.40
2022-10-06T00:32:15.396Z,25.85
2022-10-06T00:35:05.103Z,24.73
2022-10-06T00:37:56.073Z,26.20
2022-10-06T00:40:46.907Z,23.60
2022-10-06T00:43:45.714Z,22.20
2022-10-06T00:46:41.138Z,24.17
2022-10-06T00:49:34.101Z,22.75
2022-10-06T00:52:26.390Z,21.15
2022-10-06T00:55:18.510Z,20.38
2022-10-06T00:58:09.135Z,19.73
2022-10-06T01:00:58.817Z,22.55
2022-10-06T01:03:52.473Z,20.05
2022-10-06T01:06:50.672Z,21.42
2022-10-06T01:09:40.134Z,18.95
2022-10-06T01:12:33.142Z,23.00
2022-10-06T01:15:23.628Z,18.30
2022-10-06T01:18:16.423Z,19.90
2022-10-06T01:21:10.914Z,18.42
2022-10-06T01:24:03.661Z,16.30
2022-10-06T01:26:54.620Z,19.17
2022-10-06T01:29:44.130Z,18.20
2022-10-06T01:32:36.771Z,19.80
2022-10-06T01:35:25.593Z,21.90
2022-10-06T01:38:14.377Z,15.90
2022-10-06T01:41:04.836Z,18.92
2022-10-06T01:43:53.975Z,15.85
2022-10-06T01:46:43.350Z,19.35
2022-10-06T01:49:32.031Z,15.43
2022-10-06T01:52:21.349Z,18.25
2022-10-06T01:55:10.953Z,18.92
2022-10-06T01:58:01.650Z,18.50
2022-10-06T02:00:51.002Z,20.73
2022-10-06T02:03:41.491Z,14.50
2022-10-06T02:06:31.350Z,14.95
2022-10-06T02:09:20.586Z,17.48
2022-10-06T02:12:09.795Z,17.27
2022-10-06T02:15:00.438Z,17.10
2022-10-06T02:17:49.263Z,19.63
2022-10-06T02:20:38.690Z,18.95
2022-10-06T02:23:27.814Z,12.98
2022-10-06T02:26:17.625Z,13.93
2022-10-06T02:29:06.212Z,15.20
2022-10-06T02:31:56.947Z,16.48
2022-10-06T02:34:46.206Z,14.40
2022-10-06T02:37:35.679Z,13.48
2022-10-06T02:40:24.518Z,14.27
2022-10-06T02:43:15.709Z,19.33
2022-10-06T02:46:06.481Z,15.88
2022-10-06T02:48:57.018Z,15.30
2022-10-06T02:51:45.987Z,12.00
2022-10-06T02:54:35.785Z,16.40
2022-10-06T02:57:24.801Z,12.32
2022-10-06T03:00:15.259Z,14.57
2022-10-06T03:03:04.414Z,14.02
2022-10-06T03:06:01.194Z,15.07
2022-10-06T03:08:50.808Z,11.50
2022-10-06T03:11:41.510Z,13.52
2022-10-06T03:14:30.626Z,12.05
2022-10-06T03:17:19.741Z,15.05
2022-10-06T03:20:10.030Z,13.23
2022-10-06T03:23:00.529Z,11.63
2022-10-06T03:25:57.288Z,17.80
2022-10-06T03:28:47.591Z,19.30
2022-10-06T03:31:36.870Z,15.80
2022-10-06T03:34:31.867Z,16.10
2022-10-06T03:37:20.594Z,13.80
2022-10-06T03:40:12.356Z,17.13
2022-10-06T03:43:02.341Z,16.48
2022-10-06T03:45:57.913Z,12.50
2022-10-06T03:48:47.320Z,14.15
2022-10-06T03:51:37.542Z,11.48
2022-10-06T03:54:26.687Z,15.02
2022-10-06T03:57:16.594Z,15.63
2022-10-06T04:00:06.367Z,12.43
2022-10-06T04:02:55.649Z,15.05
2022-10-06T04:05:54.774Z,15.48
2022-10-06T04:08:44.207Z,16.33
2022-10-06T04:11:35.084Z,12.23
2022-10-06T04:14:25.551Z,13.10
2022-10-06T04:17:14.641Z,14.82
2022-10-06T04:20:04.079Z,15.35
2022-10-06T04:22:53.051Z,15.70
2022-10-06T04:25:42.715Z,14.32
2022-10-06T04:28:31.992Z,13.00
2022-10-06T04:31:24.285Z,15.48
2022-10-06T04:34:14.879Z,13.77
2022-10-06T04:37:06.320Z,14.25
2022-10-06T04:39:55.659Z,12.45
2022-10-06T04:42:45.343Z,15.38
2022-10-06T04:45:34.554Z,13.88
2022-10-06T04:48:24.845Z,13.88
2022-10-06T04:51:16.141Z,11.43
2022-10-06T04:54:04.799Z,11.40
2022-10-06T04:56:53.491Z,10.88
2022-10-06T05:00:04.463Z,12.23
2022-10-06T05:02:57.317Z,12.75
2022-10-06T05:05:48.364Z,14.43
2022-10-06T05:08:37.824Z,11.02
2022-10-06T05:11:27.495Z,11.73
2022-10-06T05:14:16.803Z,9.35
2022-10-06T05:17:05.621Z,10.45
2022-10-06T05:19:54.687Z,10.73
2022-10-06T05:22:45.215Z,10.25
2022-10-06T05:25:34.303Z,11.88
2022-10-06T05:28:24.273Z,11.02
2022-10-06T05:31:14.633Z,11.65
2022-10-06T05:34:03.905Z,12.65
2022-10-06T05:36:53.236Z,9.50
2022-10-06T05:39:43.978Z,11.35
2022-10-06T05:42:33.075Z,9.80
2022-10-06T05:45:21.998Z,9.02
2022-10-06T05:48:13.735Z,9.32
2022-10-06T05:51:05.878Z,10.75
2022-10-06T05:53:54.984Z,5.47
2022-10-06T05:56:46.099Z,8.52
2022-10-06T05:59:35.627Z,12.10
2022-10-06T06:02:24.888Z,7.18
2022-10-06T06:05:14.194Z,8.52
2022-10-06T06:08:03.234Z,9.45
2022-10-06T06:10:55.415Z,9.25
2022-10-06T06:13:46.509Z,6.78
2022-10-06T06:16:37.057Z,9.15
2022-10-06T06:19:29.078Z,6.88
2022-10-06T06:22:20.810Z,7.15
2022-10-06T06:25:10.517Z,6.47
2022-10-06T06:27:59.907Z,6.75
2022-10-06T06:30:51.187Z,6.97
2022-10-06T06:33:41.258Z,10.52
2022-10-06T06:36:35.549Z,7.70
2022-10-06T06:39:25.414Z,8.82
2022-10-06T06:42:14.974Z,5.60
2022-10-06T06:45:04.151Z,5.55
2022-10-06T06:47:54.454Z,5.90
2022-10-06T06:50:43.608Z,7.20
2022-10-06T06:53:32.481Z,4.88
2022-10-06T06:56:22.979Z,8.48
2022-10-06T06:59:13.494Z,7.43
2022-10-06T07:02:03.635Z,7.28
2022-10-06T07:04:54.008Z,7.00
2022-10-06T07:07:42.969Z,5.18
2022-10-06T07:10:35.648Z,9.70
2022-10-06T07:13:25.672Z,5.50
2022-10-06T07:16:34.079Z,8.45
2022-10-06T07:19:52.730Z,6.88
2022-10-06T07:23:00.836Z,8.82
2022-10-06T07:25:50.236Z,7.53
2022-10-06T07:28:43.352Z,8.23
2022-10-06T07:31:33.967Z,5.20
2022-10-06T07:34:23.159Z,7.65
2022-10-06T07:37:12.564Z,8.60
2022-10-06T07:40:03.892Z,7.38
2022-10-06T07:42:53.261Z,6.53
2022-10-06T07:45:44.725Z,4.82
2022-10-06T07:48:33.700Z,8.38
2022-10-06T07:51:25.116Z,9.20
2022-10-06T07:54:13.748Z,6.82
2022-10-06T07:57:04.477Z,7.55
2022-10-06T07:59:53.168Z,9.10
2022-10-06T08:02:42.806Z,7.03
2022-10-06T08:05:32.420Z,9.73
2022-10-06T08:08:21.537Z,10.30
2022-10-06T08:11:11.507Z,10.02
2022-10-06T08:14:02.169Z,16.23
2022-10-06T08:16:51.425Z,10.35
2022-10-06T08:20:16.400Z,16.55
2022-10-06T08:23:24.591Z,18.70
2022-10-06T08:26:14.391Z,20.27
2022-10-06T08:29:04.886Z,20.17
2022-10-06T08:31:54.456Z,17.02
2022-10-06T08:34:43.921Z,14.77
2022-10-06T08:37:32.796Z,20.13
2022-10-06T08:40:21.742Z,16.05
2022-10-06T08:43:16.613Z,20.50
2022-10-06T08:46:07.947Z,17.90
2022-10-06T08:48:58.499Z,20.73
2022-10-06T08:51:57.313Z,21.60
2022-10-06T08:54:50.368Z,18.02
2022-10-06T08:57:49.477Z,17.05
2022-10-06T09:00:39.516Z,18.42
2022-10-06T09:03:31.517Z,18.00
2022-10-06T09:06:34.699Z,18.33
2022-10-06T09:09:36.479Z,18.23
2022-10-06T09:12:32.643Z,20.17
2022-10-06T09:15:31.670Z,19.52
2022-10-06T09:18:29.144Z,18.42
2022-10-06T09:21:34.450Z,19.67
2022-10-06T09:24:31.901Z,17.42
2022-10-06T09:27:24.669Z,18.55
2022-10-06T09:30:14.343Z,18.50
2022-10-06T09:33:06.637Z,17.45
2022-10-06T09:36:06.420Z,18.73
2022-10-06T09:38:57.855Z,19.92
2022-10-06T09:41:47.462Z,19.35
2022-10-06T09:44:48.354Z,18.85
2022-10-06T09:47:40.579Z,17.92
2022-10-06T09:50:30.086Z,17.05
2022-10-06T09:53:18.835Z,20.40
2022-10-06T09:56:19.050Z,20.08
2022-10-06T09:59:19.962Z,19.23
2022-10-06T10:02:27.261Z,19.85
2022-10-06T10:05:22.629Z,15.88
2022-10-06T10:08:22.865Z,19.25
2022-10-06T10:11:39.010Z,22.58
2022-10-06T10:14:27.952Z,20.05
2022-10-06T10:17:20.257Z,22.73
2022-10-06T10:20:24.843Z,27.35
2022-10-06T10:54:36.208Z,18.45
2022-10-06T10:57:37.926Z,18.25
2022-10-06T11:00:29.425Z,19.42
2022-10-06T11:03:19.126Z,18.85
2022-10-06T11:06:32.749Z,17.95
2022-10-06T11:09:31.266Z,15.85
2022-10-06T11:12:28.319Z,18.27
2022-10-06T11:15:27.116Z,16.85
2022-10-06T11:18:30.707Z,22.65
2022-10-06T11:21:24.937Z,15.15
2022-10-06T11:24:18.001Z,20.88
2022-10-06T11:27:21.069Z,17.15
2022-10-06T11:30:18.443Z,17.23
2022-10-06T11:33:15.580Z,19.50
2022-10-06T11:36:10.450Z,20.27
2022-10-06T11:39:05.138Z,14.73
2022-10-06T11:42:03.286Z,17.38
2022-10-06T11:45:01.295Z,24.48
2022-10-06T11:48:10.545Z,19.05
2022-10-06T11:51:29.171Z,24.05
2022-10-06T11:54:37.743Z,15.43
2022-10-06T11:57:33.711Z,17.58
2022-10-06T12:00:41.711Z,19.65
2022-10-06T12:04:05.513Z,15.73
2022-10-06T12:07:03.050Z,14.50
2022-10-06T12:09:53.169Z,18.25
2022-10-06T12:13:02.076Z,14.60
2022-10-06T12:19:38.755Z,13.13
2022-10-06T12:22:31.597Z,14.40
2022-10-06T12:25:28.905Z,16.23
2022-10-06T12:28:29.458Z,17.75
2022-10-06T12:31:24.806Z,14.07
2022-10-06T12:35:01.138Z,20.23
2022-10-06T12:37:54.587Z,17.27
2022-10-06T12:40:52.398Z,18.92
2022-10-06T12:44:00.702Z,18.23
2022-10-06T12:46:50.513Z,17.33
2022-10-06T12:49:47.245Z,12.82
2022-10-06T12:52:48.301Z,16.95
2022-10-06T12:55:46.711Z,16.77
2022-10-06T12:58:36.095Z,13.95
2022-10-06T13:01:25.753Z,15.75
2022-10-06T13:04:37.835Z,16.48
2022-10-06T13:07:29.041Z,13.80
2022-10-06T13:10:22.446Z,13.88
2022-10-06T13:13:24.533Z,18.50
2022-10-06T13:16:14.557Z,15.68
2022-10-06T13:19:03.071Z,19.17
2022-10-06T13:21:51.687Z,13.57
2022-10-06T13:24:40.647Z,18.08
2022-10-06T13:27:29.105Z,16.63
2022-10-06T13:30:22.345Z,14.93
2022-10-06T13:33:16.435Z,15.05
2022-10-06T13:36:05.317Z,13.55
2022-10-06T13:38:54.402Z,12.10
2022-10-06T13:41:46.646Z,17.48
2022-10-06T13:44:39.065Z,20.77
2022-10-06T13:47:30.292Z,11.23
2022-10-06T13:50:20.175Z,14.52
2022-10-06T13:53:26.834Z,20.23
2022-10-06T13:56:36.142Z,15.88
2022-10-06T13:59:37.063Z,18.30
2022-10-06T14:02:33.636Z,13.73
2022-10-06T14:05:37.174Z,16.75
2022-10-06T14:08:28.619Z,17.45
2022-10-06T14:11:26.455Z,13.95
2022-10-06T14:14:17.963Z,14.32
2022-10-06T14:17:07.669Z,13.60
2022-10-06T14:19:57.871Z,16.67
2022-10-06T14:22:46.633Z,14.02
2022-10-06T14:25:35.151Z,17.20
2022-10-06T14:28:23.624Z,12.35
2022-10-06T14:31:14.651Z,14.75
2022-10-06T14:34:04.550Z,17.67
2022-10-06T14:36:55.257Z,16.15
2022-10-06T14:39:44.641Z,14.85
2022-10-06T14:42:33.652Z,23.38
2022-10-06T14:45:22.387Z,17.80
2022-10-06T14:48:11.579Z,15.60
2022-10-06T14:51:05.034Z,16.25
2022-10-06T14:53:56.649Z,14.50
2022-10-06T14:56:46.346Z,11.65
2022-10-06T14:59:35.125Z,11.88
2022-10-06T15:02:24.207Z,13.50
2022-10-06T15:05:14.006Z,14.02
2022-10-06T15:08:11.528Z,15.10
2022-10-06T15:11:02.411Z,11.50
2022-10-06T15:13:53.891Z,9.32
2022-10-06T15:16:44.849Z,12.95
2022-10-06T15:19:35.088Z,15.77
2022-10-06T15:22:24.076Z,10.88
2022-10-06T15:25:33.460Z,10.48
2022-10-06T15:28:41.354Z,11.13
2022-10-06T15:31:32.013Z,13.88
2022-10-06T15:34:24.664Z,14.35
2022-10-06T15:37:14.213Z,12.40
2022-10-06T15:40:05.961Z,18.65
2022-10-06T15:42:55.951Z,13.23
2022-10-06T15:45:55.455Z,13.73
2022-10-06T15:48:44.520Z,9.90
2022-10-06T15:51:35.248Z,10.48
2022-10-06T15:54:25.963Z,10.82
2022-10-06T15:57:20.592Z,13.20
2022-10-06T16:00:11.885Z,12.57
2022-10-06T16:03:02.565Z,11.90
2022-10-06T16:05:59.992Z,11.00
2022-10-06T16:08:49.131Z,13.63
2022-10-06T16:11:38.359Z,12.02
2022-10-06T16:14:27.646Z,13.02
2022-10-06T16:17:17.645Z,13.50
2022-10-06T16:20:09.651Z,13.50
2022-10-06T16:22:59.078Z,18.23
2022-10-06T16:25:47.713Z,19.42
2022-10-06T16:28:37.214Z,13.75
2022-10-06T16:31:26.941Z,16.15
2022-10-06T16:34:19.258Z,18.40
2022-10-06T16:37:09.825Z,13.95
2022-10-06T16:39:58.652Z,17.35
2022-10-06T16:42:47.712Z,15.32
2022-10-06T16:45:37.437Z,16.35
2022-10-06T16:48:29.897Z,13.30
2022-10-06T16:51:20.332Z,19.95
2022-10-06T16:54:12.603Z,21.48
2022-10-06T16:57:06.691Z,19.73
2022-10-06T16:59:56.083Z,21.30
2022-10-06T17:02:46.063Z,19.50
2022-10-06T17:05:37.722Z,18.35
2022-10-06T17:08:27.837Z,20.63
2022-10-06T17:11:21.510Z,20.55
2022-10-06T17:14:11.390Z,23.08
2022-10-06T17:17:01.010Z,19.85
2022-10-06T17:19:50.312Z,19.48
2022-10-06T17:22:39.865Z,19.95
2022-10-06T17:25:29.255Z,19.88
2022-10-06T17:28:20.084Z,19.40
2022-10-06T17:31:09.487Z,19.75
2022-10-06T17:33:59.154Z,18.55
2022-10-06T17:36:51.219Z,19.77
2022-10-06T17:39:44.764Z,20.48
2022-10-06T17:42:37.721Z,25.42
2022-10-06T17:45:28.454Z,18.80
2022-10-06T17:48:17.846Z,19.33
2022-10-06T17:51:08.045Z,21.63
2022-10-06T17:54:01.554Z,20.58
2022-10-06T17:56:52.454Z,23.40
2022-10-06T17:59:41.540Z,23.23
2022-10-06T18:02:33.179Z,21.95
2022-10-06T18:05:22.448Z,22.45
2022-10-06T18:08:13.208Z,20.55
2022-10-06T18:11:20.139Z,23.77
2022-10-06T18:14:10.656Z,26.90
2022-10-06T18:17:01.154Z,24.50
2022-10-06T18:19:52.066Z,25.45
2022-10-06T18:22:41.819Z,25.38
2022-10-06T18:25:32.350Z,21.90
2022-10-06T18:28:21.599Z,24.63
2022-10-06T18:31:10.920Z,21.85
2022-10-06T18:37:12.039Z,24.42
2022-10-06T18:40:02.418Z,26.88
2022-10-06T18:42:51.645Z,29.35
2022-10-06T18:45:57.905Z,26.08
2022-10-06T18:48:59.013Z,22.83
2022-10-06T18:51:48.751Z,21.25
2022-10-06T18:54:40.724Z,22.20
2022-10-06T18:57:29.417Z,24.15
2022-10-06T19:00:18.452Z,21.73
2022-10-06T19:03:07.574Z,25.63
2022-10-06T19:06:00.200Z,26.08
2022-10-06T19:09:03.973Z,29.55
2022-10-06T19:11:58.449Z,26.45
2022-10-06T19:14:50.922Z,29.05
2022-10-06T19:17:42.179Z,26.23
2022-10-06T19:20:32.487Z,23.83
2022-10-06T19:23:31.069Z,27.00
2022-10-06T19:26:23.281Z,37.75
2022-10-06T19:29:15.309Z,32.28
2022-10-06T19:32:07.395Z,33.00
2022-10-06T19:34:58.061Z,33.63
2022-10-06T19:37:46.949Z,38.22
2022-10-06T19:40:37.684Z,37.42
2022-10-06T19:43:26.355Z,42.45
2022-10-06T19:46:19.717Z,30.95
2022-10-06T19:49:12.374Z,32.90
2022-10-06T19:52:05.118Z,36.15
2022-10-06T19:54:55.684Z,31.20
2022-10-06T19:57:47.352Z,46.28
2022-10-06T20:00:41.461Z,41.15
2022-10-06T20:03:38.964Z,31.98
2022-10-06T20:06:30.746Z,34.72
2022-10-06T20:09:22.372Z,34.20
2022-10-06T20:12:11.013Z,35.97
2022-10-06T20:15:00.810Z,30.75
2022-10-06T20:17:50.116Z,35.78
2022-10-06T20:20:40.970Z,34.55
2022-10-06T20:23:30.517Z,32.00
2022-10-06T20:26:20.962Z,36.80
2022-10-06T20:29:12.130Z,30.67
2022-10-06T20:32:01.294Z,28.38
2022-10-06T20:34:50.091Z,29.60
2022-10-06T20:37:42.498Z,34.97
2022-10-06T20:40:39.179Z,30.00
2022-10-06T20:43:28.740Z,26.55
2022-10-06T20:46:18.368Z,31.05
2022-10-06T20:49:08.801Z,31.23
2022-10-06T20:51:57.891Z,29.88
2022-10-06T20:54:48.831Z,26.95
2022-10-06T20:57:38.319Z,31.70
2022-10-06T21:00:27.433Z,29.33
2022-10-06T21:03:17.600Z,25.35
2022-10-06T21:06:07.057Z,23.98
2022-10-06T21:08:56.481Z,23.15
2022-10-06T21:11:47.706Z,25.40
2022-10-06T21:14:37.622Z,23.27
2022-10-06T21:17:27.368Z,26.48
2022-10-06T21:20:16.868Z,24.40
2022-10-06T21:23:06.366Z,23.95
2022-10-06T21:25:55.462Z,27.35
2022-10-06T21:28:46.678Z,30.45
2022-10-06T21:31:35.717Z,24.50
2022-10-06T21:34:24.452Z,31.23
2022-10-06T21:37:15.463Z,35.58
2022-10-06T21:40:05.205Z,27.33
2022-10-06T21:42:54.034Z,31.73
2022-10-06T21:45:47.910Z,28.60
2022-10-06T21:48:37.433Z,27.50
2022-10-06T21:51:27.864Z,31.55
2022-10-06T21:54:18.083Z,35.90
2022-10-06T21:57:08.181Z,28.85
2022-10-06T21:59:57.579Z,27.85
2022-10-06T22:02:48.294Z,27.10
2022-10-06T22:05:37.622Z,28.50
2022-10-06T22:08:26.945Z,29.95
2022-10-06T22:11:18.602Z,35.25
2022-10-06T22:14:10.724Z,27.15
2022-10-06T22:16:59.588Z,27.88
2022-10-06T22:19:50.286Z,33.22
2022-10-06T22:22:39.570Z,30.77
2022-10-06T22:25:28.770Z,26.85
2022-10-06T22:28:19.819Z,25.60
2022-10-06T22:31:10.783Z,27.00
2022-10-06T22:34:02.197Z,29.65
2022-10-06T22:36:53.180Z,26.60
2022-10-06T22:39:41.851Z,26.30
2022-10-06T22:42:32.177Z,24.55
2022-10-06T22:45:21.399Z,27.83
2022-10-06T22:48:10.563Z,24.88
2022-10-06T22:50:59.787Z,32.13
2022-10-06T22:53:57.529Z,26.33
2022-10-06T22:56:47.852Z,39.90
2022-10-06T22:59:40.316Z,31.45
2022-10-06T23:02:29.387Z,32.08
2022-10-06T23:05:18.837Z,31.45
2022-10-06T23:08:10.002Z,27.63
2022-10-06T23:11:07.205Z,26.13
2022-10-06T23:13:56.125Z,28.58
2022-10-06T23:16:45.549Z,25.73
2022-10-06T23:19:35.019Z,24.55
2022-10-06T23:22:24.747Z,27.42
2022-10-06T23:25:14.311Z,26.50
2022-10-06T23:28:05.053Z,26.48
2022-10-06T23:30:54.258Z,31.55
2022-10-06T23:33:43.797Z,29.13
2022-10-06T23:36:33.175Z,30.10
2022-10-06T23:39:22.487Z,27.40
2022-10-06T23:42:11.608Z,28.92
2022-10-06T23:45:02.277Z,30.73
2022-10-06T23:47:51.275Z,28.58
2022-10-06T23:50:40.147Z,25.73
2022-10-06T23:53:30.685Z,30.52
2022-10-06T23:56:20.793Z,23.77
2022-10-06T23:59:11.102Z,27.65
